Havana, Texas
Current Conditions -  °F | °C
As of 1:53 PM on Monday 26 Jan 2015 (Local Time) from KMFE Reporting Station
Clear Clear  
Wind Chill: 74°   Ceiling: Unl
Heat Index: 74°   Visibility: 10mi
Dew Point: 35°   Wind: 5mph
Humidity: 24%   Direction: 180°S
Pressure: 30.24"   Gusts: NA
Location:  26.2167°N, 98.325°W
Report Text: KMFE 261953Z 18004KT 10SM CLR 23/02 A3024 RMK AO2 SLP238 T02330017
Loading
Personal Weather Stations






























Interactive Weather Map New forecast layout! Learn more

10-Day Weather Forecast

Advertisements
Track Severe Weather on mobile